Arlanza Village, CA

1:01 PM PDT on July 29, 2015 (GMT -0700)
La Sierra / Country View Estates | | Change Station
CLOSE
Current Station
Personal Weather Station
Location: Riverside, CA
Elevation: 856 ft
Nearby Weather Stations
Active Advisory: Areal Flood Advisory

Elev 856 ft 33.95 °N, 117.49 °W | Updated 8 minutes ago

Partly Cloudy
Partly Cloudy
92.2 °F
Feels Like 96 °F
N
2.0
Wind Variable Wind from WSW
Gusts 8.0 mph

Today
High -- | Low -- °F
--% Chance of Precip.
Yesterday
High -- | Low -- °F
Precip. -- in
5:59 AM 7:53 PM
Waxing Gibbous, 96% visible
Pressure 29.87 in
Visibility 7.0 miles
Clouds Scattered Clouds 10000 ft
Heat Index 96 °F
Dew Point 67 °F
Humidity 44%
Rainfall 0.00 in
Snow Depth Not available.
UV 10 out of 12
Pollen 3.30 out of 12
Air Quality Not available.
Flu Activity Not available.
METAR KRAL 291953Z 26007KT 7SM SCT100 33/18 A2992 RMK AO2 SLP115 T03280178

More Conditions Fewer Conditions

Pressure 29.87 in
Visibility 7.0 miles
Clouds Scattered Clouds 10000 ft
Heat Index 96 °F
Dew Point 67 °F
Humidity 44%
Rainfall 0.00 in
Snow Depth Not available.
UV 10 out of 12
Pollen 3.30 out of 12
Air Quality Not available.
Flu Activity Not available.
METAR KRAL 291953Z 26007KT 7SM SCT100 33/18 A2992 RMK AO2 SLP115 T03280178

More Conditions Fewer Conditions

10-Day Weather Forecast

×

Almanac

Astronomy

Jul. 29, 2015 Rise Set
Actual Time
Civil Twilight
Nautical Twilight
Astronomical Twilight
Moon
Length of Visible Light
Length of Day
Tomorrow will be .
, % of the Moon is Illuminated

Today's Extremes

State Highs State Lows

Community

WunderPhotos

Upload Photos

1,842,157 photos uploaded!

WunderBlogs® & News

Nearby

Air Quality

  Air Quality AQ Index Pollutant
Not available.

Snow Depth

Station Depth Elevation

Earthquake Activity

City Distance Mag. Time & Date
Minimum magnitude displayed is 2.5.

Coastal Water Temperatures

Place Temperature

Stations

Nearby Weather Stations

Station Location Temp. Windchill Dew Point Humidity Wind Precip. Elev Updated Type
                   
Areal Flood Advisory
Statement as of 12:42 PM PDT on July 29, 2015

The National Weather Service in San Diego has issued a

* Flood Advisory for...
San Bernardino County in Southern California...

* until 345 PM PDT

* at 1240 PM PDT... Doppler radar indicated heavy rain due to
thunderstorms. This will cause minor flooding in the advisory area.

* Some locations that will experience flooding include...
Apple Valley... Lucerne Valley and portions of highways 18 and 247.

Precautionary/preparedness actions...
do not drive your vehicle into areas where the water covers the
roadway. The water depth may be too great to allow your car to cross
safely. Move to higher ground.


Lat... Lon 3449 11689 3439 11682 3430 11691 3434 11708
      3453 11725 3460 11705


Jjt